sensor_id;sensor_type;location;lat;lon;timestamp;P1;durP1;ratioP1;P2;durP2;ratioP2
66342;SDS011;53144;51.524;5.080;2022-09-09T00:04:30;3.90;;;1.92;;
66342;SDS011;53144;51.524;5.080;2022-09-09T00:07:03;2.08;;;1.63;;
66342;SDS011;53144;51.524;5.080;2022-09-09T00:09:47;4.70;;;1.67;;
66342;SDS011;53144;51.524;5.080;2022-09-09T00:12:39;6.35;;;1.83;;
66342;SDS011;53144;51.524;5.080;2022-09-09T00:15:33;4.13;;;1.88;;
66342;SDS011;53144;51.524;5.080;2022-09-09T00:18:08;5.60;;;1.88;;
66342;SDS011;53144;51.524;5.080;2022-09-09T00:25:51;4.13;;;1.90;;
66342;SDS011;53144;51.524;5.080;2022-09-09T00:28:25;3.88;;;1.80;;
66342;SDS011;53144;51.524;5.080;2022-09-09T00:30:52;5.18;;;2.00;;
66342;SDS011;53144;51.524;5.080;2022-09-09T00:33:23;3.10;;;1.90;;
66342;SDS011;53144;51.524;5.080;2022-09-09T00:35:53;4.18;;;1.90;;
66342;SDS011;53144;51.524;5.080;2022-09-09T00:38:28;5.25;;;1.83;;
66342;SDS011;53144;51.524;5.080;2022-09-09T00:41:11;4.70;;;1.98;;
66342;SDS011;53144;51.524;5.080;2022-09-09T00:44:00;6.55;;;2.08;;
66342;SDS011;53144;51.524;5.080;2022-09-09T00:49:33;3.85;;;1.83;;
66342;SDS011;53144;51.524;5.080;2022-09-09T00:55:34;5.72;;;2.28;;
66342;SDS011;53144;51.524;5.080;2022-09-09T00:58:20;4.45;;;2.22;;
66342;SDS011;53144;51.524;5.080;2022-09-09T01:03:22;3.92;;;1.85;;
66342;SDS011;53144;51.524;5.080;2022-09-09T01:06:16;3.58;;;2.38;;
66342;SDS011;53144;51.524;5.080;2022-09-09T01:20:20;4.97;;;2.20;;
66342;SDS011;53144;51.524;5.080;2022-09-09T01:27:45;3.67;;;2.45;;
66342;SDS011;53144;51.524;5.080;2022-09-09T01:30:13;4.25;;;2.70;;
66342;SDS011;53144;51.524;5.080;2022-09-09T01:35:13;4.75;;;2.58;;
66342;SDS011;53144;51.524;5.080;2022-09-09T01:37:45;3.63;;;2.53;;
66342;SDS011;53144;51.524;5.080;2022-09-09T01:42:36;3.47;;;2.22;;
66342;SDS011;53144;51.524;5.080;2022-09-09T01:47:28;6.13;;;2.40;;
66342;SDS011;53144;51.524;5.080;2022-09-09T01:52:18;4.70;;;2.40;;
66342;SDS011;53144;51.524;5.080;2022-09-09T01:57:18;4.65;;;2.70;;
66342;SDS011;53144;51.524;5.080;2022-09-09T01:59:58;4.43;;;2.40;;
66342;SDS011;53144;51.524;5.080;2022-09-09T02:05:39;5.40;;;2.53;;
66342;SDS011;53144;51.524;5.080;2022-09-09T02:13:12;3.90;;;2.25;;
66342;SDS011;53144;51.524;5.080;2022-09-09T02:18:12;6.50;;;2.80;;
66342;SDS011;53144;51.524;5.080;2022-09-09T02:20:40;6.63;;;3.00;;
66342;SDS011;53144;51.524;5.080;2022-09-09T02:23:08;6.40;;;2.80;;
66342;SDS011;53144;51.524;5.080;2022-09-09T02:25:36;5.25;;;2.42;;
66342;SDS011;53144;51.524;5.080;2022-09-09T02:28:03;6.80;;;2.70;;
66342;SDS011;53144;51.524;5.080;2022-09-09T02:30:32;7.70;;;2.75;;
66342;SDS011;53144;51.524;5.080;2022-09-09T02:32:59;9.25;;;3.03;;
66342;SDS011;53144;51.524;5.080;2022-09-09T02:35:28;4.80;;;2.38;;
66342;SDS011;53144;51.524;5.080;2022-09-09T02:37:56;3.55;;;2.40;;
66342;SDS011;53144;51.524;5.080;2022-09-09T02:40:26;7.75;;;2.65;;
66342;SDS011;53144;51.524;5.080;2022-09-09T02:45:19;2.92;;;2.30;;
66342;SDS011;53144;51.524;5.080;2022-09-09T02:50:32;8.30;;;2.40;;
66342;SDS011;53144;51.524;5.080;2022-09-09T02:55:59;6.45;;;2.33;;
66342;SDS011;53144;51.524;5.080;2022-09-09T02:58:31;9.98;;;2.45;;
66342;SDS011;53144;51.524;5.080;2022-09-09T03:00:58;7.28;;;2.10;;
66342;SDS011;53144;51.524;5.080;2022-09-09T03:03:26;3.25;;;2.08;;
66342;SDS011;53144;51.524;5.080;2022-09-09T03:08:17;3.55;;;1.75;;
66342;SDS011;53144;51.524;5.080;2022-09-09T03:10:43;4.95;;;2.10;;
66342;SDS011;53144;51.524;5.080;2022-09-09T03:13:08;4.07;;;1.98;;
66342;SDS011;53144;51.524;5.080;2022-09-09T03:15:34;4.65;;;2.60;;
66342;SDS011;53144;51.524;5.080;2022-09-09T03:18:00;4.05;;;1.98;;
66342;SDS011;53144;51.524;5.080;2022-09-09T03:20:26;9.60;;;2.70;;
66342;SDS011;53144;51.524;5.080;2022-09-09T03:22:53;4.80;;;2.00;;
66342;SDS011;53144;51.524;5.080;2022-09-09T03:27:45;4.20;;;2.08;;
66342;SDS011;53144;51.524;5.080;2022-09-09T03:30:10;10.05;;;2.53;;
66342;SDS011;53144;51.524;5.080;2022-09-09T03:35:01;7.28;;;2.55;;
66342;SDS011;53144;51.524;5.080;2022-09-09T03:39:56;6.78;;;2.50;;
66342;SDS011;53144;51.524;5.080;2022-09-09T03:44:47;6.50;;;2.50;;
66342;SDS011;53144;51.524;5.080;2022-09-09T03:47:18;12.85;;;3.20;;
66342;SDS011;53144;51.524;5.080;2022-09-09T03:49:44;6.15;;;2.88;;
66342;SDS011;53144;51.524;5.080;2022-09-09T03:54:35;10.05;;;2.92;;
66342;SDS011;53144;51.524;5.080;2022-09-09T03:57:01;5.63;;;2.88;;
66342;SDS011;53144;51.524;5.080;2022-09-09T03:59:27;7.10;;;2.75;;
66342;SDS011;53144;51.524;5.080;2022-09-09T04:04:18;5.35;;;2.50;;
66342;SDS011;53144;51.524;5.080;2022-09-09T04:06:45;8.77;;;3.08;;
66342;SDS011;53144;51.524;5.080;2022-09-09T04:11:36;6.97;;;2.47;;
66342;SDS011;53144;51.524;5.080;2022-09-09T04:16:27;10.15;;;2.78;;
66342;SDS011;53144;51.524;5.080;2022-09-09T04:18:53;5.15;;;3.00;;
66342;SDS011;53144;51.524;5.080;2022-09-09T04:21:18;10.05;;;2.75;;
66342;SDS011;53144;51.524;5.080;2022-09-09T04:26:09;8.75;;;2.65;;
66342;SDS011;53144;51.524;5.080;2022-09-09T04:28:36;8.38;;;2.60;;
66342;SDS011;53144;51.524;5.080;2022-09-09T04:31:08;7.65;;;2.55;;
66342;SDS011;53144;51.524;5.080;2022-09-09T04:33:37;10.40;;;2.60;;
66342;SDS011;53144;51.524;5.080;2022-09-09T04:36:04;10.07;;;2.60;;
66342;SDS011;53144;51.524;5.080;2022-09-09T04:40:55;8.70;;;2.53;;
66342;SDS011;53144;51.524;5.080;2022-09-09T04:45:47;6.85;;;2.58;;
66342;SDS011;53144;51.524;5.080;2022-09-09T04:48:14;8.27;;;2.50;;
66342;SDS011;53144;51.524;5.080;2022-09-09T04:53:08;9.20;;;2.65;;
66342;SDS011;53144;51.524;5.080;2022-09-09T04:58:06;5.88;;;2.17;;
66342;SDS011;53144;51.524;5.080;2022-09-09T05:00:33;7.72;;;2.15;;
66342;SDS011;53144;51.524;5.080;2022-09-09T05:03:04;5.63;;;2.30;;
66342;SDS011;53144;51.524;5.080;2022-09-09T05:05:31;7.50;;;2.17;;
66342;SDS011;53144;51.524;5.080;2022-09-09T05:08:05;7.43;;;2.47;;
66342;SDS011;53144;51.524;5.080;2022-09-09T05:10:33;10.43;;;2.50;;
66342;SDS011;53144;51.524;5.080;2022-09-09T05:13:01;7.75;;;2.67;;
66342;SDS011;53144;51.524;5.080;2022-09-09T05:17:52;7.60;;;2.25;;
66342;SDS011;53144;51.524;5.080;2022-09-09T05:20:18;7.05;;;2.65;;
66342;SDS011;53144;51.524;5.080;2022-09-09T05:22:43;10.10;;;2.75;;
66342;SDS011;53144;51.524;5.080;2022-09-09T05:27:37;9.25;;;2.75;;
66342;SDS011;53144;51.524;5.080;2022-09-09T05:30:03;8.93;;;2.20;;
66342;SDS011;53144;51.524;5.080;2022-09-09T05:32:29;5.68;;;2.10;;
66342;SDS011;53144;51.524;5.080;2022-09-09T05:34:59;7.70;;;2.03;;
66342;SDS011;53144;51.524;5.080;2022-09-09T05:39:50;5.82;;;1.92;;
66342;SDS011;53144;51.524;5.080;2022-09-09T05:42:15;7.60;;;2.20;;
66342;SDS011;53144;51.524;5.080;2022-09-09T05:47:07;7.33;;;2.20;;
66342;SDS011;53144;51.524;5.080;2022-09-09T05:49:34;8.00;;;2.00;;
66342;SDS011;53144;51.524;5.080;2022-09-09T05:54:25;9.93;;;1.90;;
66342;SDS011;53144;51.524;5.080;2022-09-09T05:56:50;7.25;;;2.20;;
66342;SDS011;53144;51.524;5.080;2022-09-09T05:59:17;7.85;;;2.22;;
66342;SDS011;53144;51.524;5.080;2022-09-09T06:04:10;9.30;;;2.25;;
66342;SDS011;53144;51.524;5.080;2022-09-09T06:09:02;11.00;;;2.53;;
66342;SDS011;53144;51.524;5.080;2022-09-09T06:11:31;10.02;;;2.40;;
66342;SDS011;53144;51.524;5.080;2022-09-09T06:16:24;11.77;;;2.80;;
66342;SDS011;53144;51.524;5.080;2022-09-09T06:18:51;8.80;;;2.20;;
66342;SDS011;53144;51.524;5.080;2022-09-09T06:21:21;9.77;;;2.88;;
66342;SDS011;53144;51.524;5.080;2022-09-09T06:24:17;8.00;;;1.88;;
66342;SDS011;53144;51.524;5.080;2022-09-09T06:26:56;6.85;;;2.00;;
66342;SDS011;53144;51.524;5.080;2022-09-09T06:29:22;7.05;;;1.95;;
66342;SDS011;53144;51.524;5.080;2022-09-09T06:34:13;5.88;;;1.85;;
66342;SDS011;53144;51.524;5.080;2022-09-09T06:36:38;10.40;;;2.50;;
66342;SDS011;53144;51.524;5.080;2022-09-09T06:39:05;7.85;;;2.17;;
66342;SDS011;53144;51.524;5.080;2022-09-09T06:41:31;7.50;;;2.13;;
66342;SDS011;53144;51.524;5.080;2022-09-09T06:44:04;7.35;;;2.13;;
66342;SDS011;53144;51.524;5.080;2022-09-09T06:46:30;10.38;;;2.63;;
66342;SDS011;53144;51.524;5.080;2022-09-09T06:49:00;8.95;;;2.40;;
66342;SDS011;53144;51.524;5.080;2022-09-09T06:51:31;8.18;;;2.28;;
66342;SDS011;53144;51.524;5.080;2022-09-09T06:53:59;9.18;;;2.08;;
66342;SDS011;53144;51.524;5.080;2022-09-09T06:56:28;9.32;;;2.00;;
66342;SDS011;53144;51.524;5.080;2022-09-09T06:58:58;10.05;;;2.63;;
66342;SDS011;53144;51.524;5.080;2022-09-09T07:01:38;7.78;;;2.28;;
66342;SDS011;53144;51.524;5.080;2022-09-09T07:04:19;10.70;;;2.50;;
66342;SDS011;53144;51.524;5.080;2022-09-09T07:06:45;9.35;;;2.03;;
66342;SDS011;53144;51.524;5.080;2022-09-09T07:09:12;8.40;;;2.13;;
66342;SDS011;53144;51.524;5.080;2022-09-09T07:11:42;8.77;;;2.30;;
66342;SDS011;53144;51.524;5.080;2022-09-09T07:14:35;13.60;;;2.17;;
66342;SDS011;53144;51.524;5.080;2022-09-09T07:17:07;6.13;;;2.30;;
66342;SDS011;53144;51.524;5.080;2022-09-09T07:19:32;7.10;;;2.50;;
66342;SDS011;53144;51.524;5.080;2022-09-09T07:22:08;13.07;;;2.28;;
66342;SDS011;53144;51.524;5.080;2022-09-09T07:24:35;8.45;;;2.30;;
66342;SDS011;53144;51.524;5.080;2022-09-09T07:27:01;7.43;;;2.25;;
66342;SDS011;53144;51.524;5.080;2022-09-09T07:32:43;7.85;;;1.90;;
66342;SDS011;53144;51.524;5.080;2022-09-09T07:40:41;7.55;;;2.10;;
66342;SDS011;53144;51.524;5.080;2022-09-09T07:43:06;7.22;;;1.83;;
66342;SDS011;53144;51.524;5.080;2022-09-09T07:45:38;8.20;;;2.05;;
66342;SDS011;53144;51.524;5.080;2022-09-09T07:48:06;8.60;;;1.70;;
66342;SDS011;53144;51.524;5.080;2022-09-09T07:50:33;8.45;;;2.03;;
66342;SDS011;53144;51.524;5.080;2022-09-09T07:52:59;8.23;;;1.90;;
66342;SDS011;53144;51.524;5.080;2022-09-09T07:55:25;9.55;;;1.98;;
66342;SDS011;53144;51.524;5.080;2022-09-09T07:57:52;9.48;;;2.00;;
66342;SDS011;53144;51.524;5.080;2022-09-09T08:00:18;9.18;;;2.03;;
66342;SDS011;53144;51.524;5.080;2022-09-09T08:02:44;11.18;;;2.22;;
66342;SDS011;53144;51.524;5.080;2022-09-09T08:05:11;8.95;;;2.22;;
66342;SDS011;53144;51.524;5.080;2022-09-09T08:07:37;7.60;;;2.05;;
66342;SDS011;53144;51.524;5.080;2022-09-09T08:10:03;9.23;;;2.20;;
66342;SDS011;53144;51.524;5.080;2022-09-09T08:12:29;8.90;;;1.95;;
66342;SDS011;53144;51.524;5.080;2022-09-09T08:14:55;5.25;;;1.88;;
66342;SDS011;53144;51.524;5.080;2022-09-09T08:17:20;6.88;;;1.75;;
66342;SDS011;53144;51.524;5.080;2022-09-09T08:19:46;9.48;;;2.45;;
66342;SDS011;53144;51.524;5.080;2022-09-09T08:22:11;9.00;;;2.33;;
66342;SDS011;53144;51.524;5.080;2022-09-09T08:24:37;7.00;;;2.00;;
66342;SDS011;53144;51.524;5.080;2022-09-09T08:27:05;7.55;;;2.88;;
66342;SDS011;53144;51.524;5.080;2022-09-09T08:29:31;8.40;;;2.03;;
66342;SDS011;53144;51.524;5.080;2022-09-09T08:31:58;6.50;;;1.58;;
66342;SDS011;53144;51.524;5.080;2022-09-09T08:34:25;11.02;;;2.05;;
66342;SDS011;53144;51.524;5.080;2022-09-09T08:36:52;5.05;;;1.90;;
66342;SDS011;53144;51.524;5.080;2022-09-09T08:39:19;6.03;;;1.90;;
66342;SDS011;53144;51.524;5.080;2022-09-09T08:47:46;8.05;;;2.05;;
66342;SDS011;53144;51.524;5.080;2022-09-09T08:50:29;7.57;;;2.00;;
66342;SDS011;53144;51.524;5.080;2022-09-09T08:53:18;7.97;;;1.80;;
66342;SDS011;53144;51.524;5.080;2022-09-09T08:55:47;8.50;;;2.00;;
66342;SDS011;53144;51.524;5.080;2022-09-09T08:58:23;8.98;;;2.10;;
66342;SDS011;53144;51.524;5.080;2022-09-09T09:11:40;7.75;;;1.70;;
66342;SDS011;53144;51.524;5.080;2022-09-09T09:14:24;5.25;;;1.83;;
66342;SDS011;53144;51.524;5.080;2022-09-09T09:19:40;7.35;;;2.00;;
66342;SDS011;53144;51.524;5.080;2022-09-09T09:24:42;6.45;;;2.00;;
66342;SDS011;53144;51.524;5.080;2022-09-09T09:27:18;6.25;;;1.95;;
66342;SDS011;53144;51.524;5.080;2022-09-09T09:29:50;7.80;;;2.35;;
66342;SDS011;53144;51.524;5.080;2022-09-09T09:32:25;6.90;;;1.95;;
66342;SDS011;53144;51.524;5.080;2022-09-09T09:34:56;10.32;;;2.42;;
66342;SDS011;53144;51.524;5.080;2022-09-09T09:37:28;9.20;;;2.33;;
66342;SDS011;53144;51.524;5.080;2022-09-09T09:42:58;11.20;;;2.67;;
66342;SDS011;53144;51.524;5.080;2022-09-09T09:48:11;9.57;;;1.80;;
66342;SDS011;53144;51.524;5.080;2022-09-09T09:50:48;11.30;;;2.22;;
66342;SDS011;53144;51.524;5.080;2022-09-09T09:53:21;9.45;;;2.10;;
66342;SDS011;53144;51.524;5.080;2022-09-09T09:55:56;7.72;;;2.00;;
66342;SDS011;53144;51.524;5.080;2022-09-09T09:58:26;9.65;;;1.85;;
66342;SDS011;53144;51.524;5.080;2022-09-09T10:00:56;15.50;;;2.30;;
66342;SDS011;53144;51.524;5.080;2022-09-09T10:05:55;6.60;;;2.03;;
66342;SDS011;53144;51.524;5.080;2022-09-09T10:08:27;8.45;;;2.05;;
66342;SDS011;53144;51.524;5.080;2022-09-09T10:16:13;7.82;;;2.50;;
66342;SDS011;53144;51.524;5.080;2022-09-09T10:27:50;8.30;;;2.63;;
66342;SDS011;53144;51.524;5.080;2022-09-09T10:30:58;7.38;;;2.20;;
66342;SDS011;53144;51.524;5.080;2022-09-09T10:33:32;7.60;;;2.20;;
66342;SDS011;53144;51.524;5.080;2022-09-09T10:36:21;7.90;;;2.00;;
66342;SDS011;53144;51.524;5.080;2022-09-09T10:38:54;6.82;;;1.90;;
66342;SDS011;53144;51.524;5.080;2022-09-09T10:52:43;8.50;;;2.25;;
66342;SDS011;53144;51.524;5.080;2022-09-09T10:55:20;10.43;;;2.22;;
66342;SDS011;53144;51.524;5.080;2022-09-09T10:57:51;4.72;;;2.03;;
66342;SDS011;53144;51.524;5.080;2022-09-09T11:00:23;8.30;;;1.88;;
66342;SDS011;53144;51.524;5.080;2022-09-09T11:03:17;9.57;;;2.60;;
66342;SDS011;53144;51.524;5.080;2022-09-09T11:05:49;8.43;;;2.33;;
66342;SDS011;53144;51.524;5.080;2022-09-09T11:08:19;7.80;;;2.35;;
66342;SDS011;53144;51.524;5.080;2022-09-09T11:13:37;7.60;;;2.10;;
66342;SDS011;53144;51.524;5.080;2022-09-09T11:18:58;6.57;;;2.40;;
66342;SDS011;53144;51.524;5.080;2022-09-09T11:21:33;6.47;;;2.00;;
66342;SDS011;53144;51.524;5.080;2022-09-09T11:24:08;7.45;;;2.08;;
66342;SDS011;53144;51.524;5.080;2022-09-09T11:26:41;6.32;;;2.30;;
66342;SDS011;53144;51.524;5.080;2022-09-09T11:31:45;6.35;;;1.95;;
66342;SDS011;53144;51.524;5.080;2022-09-09T11:34:42;9.35;;;2.10;;
66342;SDS011;53144;51.524;5.080;2022-09-09T11:37:34;8.75;;;2.63;;
66342;SDS011;53144;51.524;5.080;2022-09-09T11:40:25;7.03;;;2.25;;
66342;SDS011;53144;51.524;5.080;2022-09-09T11:43:02;6.63;;;2.40;;
66342;SDS011;53144;51.524;5.080;2022-09-09T11:45:33;7.95;;;2.65;;
66342;SDS011;53144;51.524;5.080;2022-09-09T11:48:00;6.43;;;2.10;;
66342;SDS011;53144;51.524;5.080;2022-09-09T11:50:31;7.05;;;2.75;;
66342;SDS011;53144;51.524;5.080;2022-09-09T11:53:19;7.20;;;2.40;;
66342;SDS011;53144;51.524;5.080;2022-09-09T11:55:47;7.25;;;2.38;;
66342;SDS011;53144;51.524;5.080;2022-09-09T11:58:24;9.82;;;2.33;;
66342;SDS011;53144;51.524;5.080;2022-09-09T12:00:50;6.47;;;2.45;;
66342;SDS011;53144;51.524;5.080;2022-09-09T12:08:46;7.25;;;2.70;;
66342;SDS011;53144;51.524;5.080;2022-09-09T12:11:28;7.38;;;2.35;;
66342;SDS011;53144;51.524;5.080;2022-09-09T12:13:56;8.20;;;2.30;;
66342;SDS011;53144;51.524;5.080;2022-09-09T12:16:36;6.40;;;2.40;;
66342;SDS011;53144;51.524;5.080;2022-09-09T12:19:22;9.00;;;2.30;;
66342;SDS011;53144;51.524;5.080;2022-09-09T12:27:45;8.75;;;2.35;;
66342;SDS011;53144;51.524;5.080;2022-09-09T12:30:48;5.13;;;2.28;;
66342;SDS011;53144;51.524;5.080;2022-09-09T12:33:35;8.30;;;2.40;;
66342;SDS011;53144;51.524;5.080;2022-09-09T12:36:10;5.15;;;1.60;;
66342;SDS011;53144;51.524;5.080;2022-09-09T12:38:42;8.00;;;2.22;;
66342;SDS011;53144;51.524;5.080;2022-09-09T12:41:18;5.28;;;1.73;;
66342;SDS011;53144;51.524;5.080;2022-09-09T12:43:45;6.05;;;1.95;;
66342;SDS011;53144;51.524;5.080;2022-09-09T12:46:23;8.02;;;1.85;;
66342;SDS011;53144;51.524;5.080;2022-09-09T12:48:58;4.50;;;2.00;;
66342;SDS011;53144;51.524;5.080;2022-09-09T12:51:24;9.30;;;2.10;;
66342;SDS011;53144;51.524;5.080;2022-09-09T12:53:53;5.47;;;1.75;;
66342;SDS011;53144;51.524;5.080;2022-09-09T12:56:20;9.48;;;1.90;;
66342;SDS011;53144;51.524;5.080;2022-09-09T12:58:48;6.90;;;2.13;;
66342;SDS011;53144;51.524;5.080;2022-09-09T13:03:47;9.30;;;1.85;;
66342;SDS011;53144;51.524;5.080;2022-09-09T13:06:29;4.35;;;1.40;;
66342;SDS011;53144;51.524;5.080;2022-09-09T13:08:56;6.65;;;1.65;;
66342;SDS011;53144;51.524;5.080;2022-09-09T13:14:31;6.00;;;1.60;;
66342;SDS011;53144;51.524;5.080;2022-09-09T13:17:03;5.85;;;1.50;;
66342;SDS011;53144;51.524;5.080;2022-09-09T13:19:39;6.15;;;1.90;;
66342;SDS011;53144;51.524;5.080;2022-09-09T13:22:33;3.22;;;1.60;;
66342;SDS011;53144;51.524;5.080;2022-09-09T13:27:36;3.63;;;1.45;;
66342;SDS011;53144;51.524;5.080;2022-09-09T13:33:05;3.45;;;1.40;;
66342;SDS011;53144;51.524;5.080;2022-09-09T13:35:31;4.03;;;1.27;;
66342;SDS011;53144;51.524;5.080;2022-09-09T13:37:58;8.27;;;2.10;;
66342;SDS011;53144;51.524;5.080;2022-09-09T13:40:31;7.22;;;1.50;;
66342;SDS011;53144;51.524;5.080;2022-09-09T13:42:56;5.22;;;1.60;;
66342;SDS011;53144;51.524;5.080;2022-09-09T13:45:23;4.00;;;1.40;;
66342;SDS011;53144;51.524;5.080;2022-09-09T13:47:53;4.65;;;1.30;;
66342;SDS011;53144;51.524;5.080;2022-09-09T13:53:07;5.03;;;1.30;;
66342;SDS011;53144;51.524;5.080;2022-09-09T13:55:35;4.35;;;1.40;;
66342;SDS011;53144;51.524;5.080;2022-09-09T13:58:03;4.43;;;1.42;;
66342;SDS011;53144;51.524;5.080;2022-09-09T14:00:30;5.95;;;1.35;;
66342;SDS011;53144;51.524;5.080;2022-09-09T14:02:58;6.47;;;1.23;;
66342;SDS011;53144;51.524;5.080;2022-09-09T14:05:25;2.85;;;1.25;;
66342;SDS011;53144;51.524;5.080;2022-09-09T14:07:51;6.57;;;1.30;;
66342;SDS011;53144;51.524;5.080;2022-09-09T14:10:16;2.08;;;1.17;;
66342;SDS011;53144;51.524;5.080;2022-09-09T14:12:42;3.40;;;1.38;;
66342;SDS011;53144;51.524;5.080;2022-09-09T14:15:09;2.13;;;1.30;;
66342;SDS011;53144;51.524;5.080;2022-09-09T14:17:35;3.85;;;1.40;;
66342;SDS011;53144;51.524;5.080;2022-09-09T14:20:01;4.75;;;1.10;;
66342;SDS011;53144;51.524;5.080;2022-09-09T14:22:35;2.55;;;1.25;;
66342;SDS011;53144;51.524;5.080;2022-09-09T14:25:01;3.17;;;1.40;;
66342;SDS011;53144;51.524;5.080;2022-09-09T14:27:27;2.28;;;1.20;;
66342;SDS011;53144;51.524;5.080;2022-09-09T14:29:53;3.40;;;1.23;;
66342;SDS011;53144;51.524;5.080;2022-09-09T14:32:19;4.28;;;1.60;;
66342;SDS011;53144;51.524;5.080;2022-09-09T14:34:44;6.97;;;1.98;;
66342;SDS011;53144;51.524;5.080;2022-09-09T14:37:10;5.88;;;2.22;;
66342;SDS011;53144;51.524;5.080;2022-09-09T14:39:35;7.28;;;2.08;;
66342;SDS011;53144;51.524;5.080;2022-09-09T14:42:03;11.07;;;3.03;;
66342;SDS011;53144;51.524;5.080;2022-09-09T14:44:29;6.50;;;2.40;;
66342;SDS011;53144;51.524;5.080;2022-09-09T14:46:54;4.32;;;1.90;;
66342;SDS011;53144;51.524;5.080;2022-09-09T14:49:20;13.10;;;3.30;;
66342;SDS011;53144;51.524;5.080;2022-09-09T14:51:45;7.72;;;2.58;;
66342;SDS011;53144;51.524;5.080;2022-09-09T14:54:11;4.78;;;2.40;;
66342;SDS011;53144;51.524;5.080;2022-09-09T14:56:36;6.32;;;2.00;;
66342;SDS011;53144;51.524;5.080;2022-09-09T14:59:03;4.85;;;2.22;;
66342;SDS011;53144;51.524;5.080;2022-09-09T15:01:30;2.75;;;1.77;;
66342;SDS011;53144;51.524;5.080;2022-09-09T15:03:58;4.53;;;1.90;;
66342;SDS011;53144;51.524;5.080;2022-09-09T15:06:30;6.55;;;2.13;;
66342;SDS011;53144;51.524;5.080;2022-09-09T15:08:58;3.00;;;2.10;;
66342;SDS011;53144;51.524;5.080;2022-09-09T15:11:29;2.13;;;1.83;;
66342;SDS011;53144;51.524;5.080;2022-09-09T15:13:57;5.35;;;2.00;;
66342;SDS011;53144;51.524;5.080;2022-09-09T15:16:24;5.72;;;2.25;;
66342;SDS011;53144;51.524;5.080;2022-09-09T15:18:51;2.55;;;1.95;;
66342;SDS011;53144;51.524;5.080;2022-09-09T15:21:29;7.18;;;2.25;;
66342;SDS011;53144;51.524;5.080;2022-09-09T15:23:57;4.93;;;2.10;;
66342;SDS011;53144;51.524;5.080;2022-09-09T15:26:23;2.30;;;1.80;;
66342;SDS011;53144;51.524;5.080;2022-09-09T15:28:48;1.77;;;1.67;;
66342;SDS011;53144;51.524;5.080;2022-09-09T15:31:32;6.53;;;1.90;;
66342;SDS011;53144;51.524;5.080;2022-09-09T15:34:02;3.95;;;2.40;;
66342;SDS011;53144;51.524;5.080;2022-09-09T15:36:37;3.92;;;2.92;;
66342;SDS011;53144;51.524;5.080;2022-09-09T15:39:05;6.00;;;2.90;;
66342;SDS011;53144;51.524;5.080;2022-09-09T15:41:33;3.65;;;2.90;;
66342;SDS011;53144;51.524;5.080;2022-09-09T15:43:59;5.55;;;3.33;;
66342;SDS011;53144;51.524;5.080;2022-09-09T15:46:35;3.08;;;2.83;;
66342;SDS011;53144;51.524;5.080;2022-09-09T15:49:07;3.97;;;2.97;;
66342;SDS011;53144;51.524;5.080;2022-09-09T15:51:34;6.13;;;3.25;;
66342;SDS011;53144;51.524;5.080;2022-09-09T15:53:59;4.43;;;3.25;;
66342;SDS011;53144;51.524;5.080;2022-09-09T15:56:25;5.05;;;3.40;;
66342;SDS011;53144;51.524;5.080;2022-09-09T15:58:53;8.00;;;3.85;;
66342;SDS011;53144;51.524;5.080;2022-09-09T16:01:20;4.10;;;3.50;;
66342;SDS011;53144;51.524;5.080;2022-09-09T16:03:45;4.78;;;3.42;;
66342;SDS011;53144;51.524;5.080;2022-09-09T16:06:12;12.55;;;4.28;;
66342;SDS011;53144;51.524;5.080;2022-09-09T16:08:42;5.65;;;3.50;;
66342;SDS011;53144;51.524;5.080;2022-09-09T16:13:43;7.57;;;3.80;;
66342;SDS011;53144;51.524;5.080;2022-09-09T16:16:13;5.53;;;3.95;;
66342;SDS011;53144;51.524;5.080;2022-09-09T16:18:40;6.35;;;3.83;;
66342;SDS011;53144;51.524;5.080;2022-09-09T16:21:14;6.28;;;3.65;;
66342;SDS011;53144;51.524;5.080;2022-09-09T16:23:42;4.53;;;3.33;;
66342;SDS011;53144;51.524;5.080;2022-09-09T16:26:10;8.18;;;3.67;;
66342;SDS011;53144;51.524;5.080;2022-09-09T16:28:37;5.90;;;3.20;;
66342;SDS011;53144;51.524;5.080;2022-09-09T16:31:10;5.50;;;3.30;;
66342;SDS011;53144;51.524;5.080;2022-09-09T16:33:38;3.88;;;2.90;;
66342;SDS011;53144;51.524;5.080;2022-09-09T16:36:08;4.13;;;2.92;;
66342;SDS011;53144;51.524;5.080;2022-09-09T16:38:39;4.35;;;3.00;;
66342;SDS011;53144;51.524;5.080;2022-09-09T16:41:05;5.55;;;3.63;;
66342;SDS011;53144;51.524;5.080;2022-09-09T16:43:32;6.38;;;4.30;;
66342;SDS011;53144;51.524;5.080;2022-09-09T16:45:58;7.18;;;4.45;;
66342;SDS011;53144;51.524;5.080;2022-09-09T16:48:26;6.70;;;4.72;;
66342;SDS011;53144;51.524;5.080;2022-09-09T16:51:00;9.65;;;4.47;;
66342;SDS011;53144;51.524;5.080;2022-09-09T16:53:39;6.68;;;4.50;;
66342;SDS011;53144;51.524;5.080;2022-09-09T16:56:05;7.95;;;4.57;;
66342;SDS011;53144;51.524;5.080;2022-09-09T16:58:32;8.45;;;4.22;;
66342;SDS011;53144;51.524;5.080;2022-09-09T17:00:58;6.10;;;4.25;;
66342;SDS011;53144;51.524;5.080;2022-09-09T17:03:25;6.00;;;4.30;;
66342;SDS011;53144;51.524;5.080;2022-09-09T17:05:51;6.50;;;4.32;;
66342;SDS011;53144;51.524;5.080;2022-09-09T17:08:16;7.43;;;3.83;;
66342;SDS011;53144;51.524;5.080;2022-09-09T17:10:41;4.40;;;3.80;;
66342;SDS011;53144;51.524;5.080;2022-09-09T17:13:07;5.80;;;3.53;;
66342;SDS011;53144;51.524;5.080;2022-09-09T17:15:33;6.95;;;3.65;;
66342;SDS011;53144;51.524;5.080;2022-09-09T17:17:59;5.43;;;3.10;;
66342;SDS011;53144;51.524;5.080;2022-09-09T17:20:25;4.88;;;2.95;;
66342;SDS011;53144;51.524;5.080;2022-09-09T17:22:50;3.10;;;2.72;;
66342;SDS011;53144;51.524;5.080;2022-09-09T17:25:16;4.90;;;2.92;;
66342;SDS011;53144;51.524;5.080;2022-09-09T17:27:44;4.20;;;2.78;;
66342;SDS011;53144;51.524;5.080;2022-09-09T17:30:10;6.30;;;3.30;;
66342;SDS011;53144;51.524;5.080;2022-09-09T17:32:35;3.70;;;2.63;;
66342;SDS011;53144;51.524;5.080;2022-09-09T17:35:01;4.70;;;2.72;;
66342;SDS011;53144;51.524;5.080;2022-09-09T17:37:27;7.43;;;3.30;;
66342;SDS011;53144;51.524;5.080;2022-09-09T17:39:53;4.32;;;3.00;;
66342;SDS011;53144;51.524;5.080;2022-09-09T17:42:18;5.90;;;3.35;;
66342;SDS011;53144;51.524;5.080;2022-09-09T17:44:43;5.53;;;3.33;;
66342;SDS011;53144;51.524;5.080;2022-09-09T17:47:09;4.22;;;3.25;;
66342;SDS011;53144;51.524;5.080;2022-09-09T17:49:34;5.40;;;3.47;;
66342;SDS011;53144;51.524;5.080;2022-09-09T17:52:00;8.50;;;3.33;;
66342;SDS011;53144;51.524;5.080;2022-09-09T17:54:25;7.68;;;3.97;;
66342;SDS011;53144;51.524;5.080;2022-09-09T17:56:51;5.25;;;3.70;;
66342;SDS011;53144;51.524;5.080;2022-09-09T17:59:17;5.75;;;3.50;;
66342;SDS011;53144;51.524;5.080;2022-09-09T18:01:44;5.28;;;4.07;;
66342;SDS011;53144;51.524;5.080;2022-09-09T18:04:12;5.43;;;4.10;;
66342;SDS011;53144;51.524;5.080;2022-09-09T18:06:40;5.90;;;3.90;;
66342;SDS011;53144;51.524;5.080;2022-09-09T18:09:09;5.45;;;4.00;;
66342;SDS011;53144;51.524;5.080;2022-09-09T18:11:38;8.35;;;4.57;;
66342;SDS011;53144;51.524;5.080;2022-09-09T18:14:17;9.85;;;4.88;;
66342;SDS011;53144;51.524;5.080;2022-09-09T18:16:45;6.32;;;4.57;;
66342;SDS011;53144;51.524;5.080;2022-09-09T18:19:11;6.57;;;4.78;;
66342;SDS011;53144;51.524;5.080;2022-09-09T18:21:39;5.72;;;4.70;;
66342;SDS011;53144;51.524;5.080;2022-09-09T18:24:09;6.28;;;4.70;;
66342;SDS011;53144;51.524;5.080;2022-09-09T18:26:36;8.05;;;4.97;;
66342;SDS011;53144;51.524;5.080;2022-09-09T18:29:04;6.07;;;4.38;;
66342;SDS011;53144;51.524;5.080;2022-09-09T18:31:32;7.03;;;4.93;;
66342;SDS011;53144;51.524;5.080;2022-09-09T18:33:58;6.68;;;4.80;;
66342;SDS011;53144;51.524;5.080;2022-09-09T18:36:31;7.95;;;4.97;;
66342;SDS011;53144;51.524;5.080;2022-09-09T18:39:01;10.63;;;5.00;;
66342;SDS011;53144;51.524;5.080;2022-09-09T18:41:29;7.28;;;4.68;;
66342;SDS011;53144;51.524;5.080;2022-09-09T18:44:00;7.13;;;5.22;;